Time;durP1;ratioP1;P1;durP2;ratioP2;P2;SDS_P1;SDS_P2;PMS_P1;PMS_P2;Temp;Humidity;BMP_temperature;BMP_pressure;BME280_temperature;BME280_humidity;BME280_pressure;Samples;Min_cycle;Max_cycle;Signal;HPM_P1;HPM_P2
2022/10/28 00:00:00;;;;;;;285.33;273.73;;;16.10;99.90;;;;;;4973106;28;20483;-85
2022/10/28 00:02:27;;;;;;;285.53;273.83;;;16.10;99.90;;;;;;4970639;28;20482;-85
2022/10/28 00:04:54;;;;;;;281.83;270.73;;;16.00;99.90;;;;;;4969645;28;20465;-85
2022/10/28 00:07:20;;;;;;;269.60;257.90;;;16.10;99.90;;;;;;4969910;28;20462;-85
2022/10/28 00:09:47;;;;;;;243.13;232.73;;;16.10;99.90;;;;;;4969920;28;20494;-85
2022/10/28 00:12:15;;;;;;;234.53;225.03;;;16.30;99.90;;;;;;4969302;28;20467;-85
2022/10/28 00:14:42;;;;;;;201.83;193.87;;;16.20;99.90;;;;;;4969600;28;20460;-85
2022/10/28 00:17:08;;;;;;;191.33;183.73;;;16.30;99.90;;;;;;4969556;28;20459;-85
2022/10/28 00:19:35;;;;;;;183.17;175.87;;;16.30;99.90;;;;;;4969778;28;20455;-85
2022/10/28 00:22:02;;;;;;;182.33;174.93;;;16.20;99.90;;;;;;4969339;28;20481;-85
2022/10/28 00:24:28;;;;;;;177.97;170.77;;;16.20;99.90;;;;;;4968505;28;20954;-85
2022/10/28 00:26:55;;;;;;;165.70;159.03;;;16.30;99.90;;;;;;4969238;28;20463;-86
2022/10/28 00:29:24;;;;;;;154.53;148.03;;;16.40;99.90;;;;;;4969238;28;20470;-85
2022/10/28 00:31:51;;;;;;;144.77;139.10;;;16.30;99.90;;;;;;4969521;28;20454;-85
2022/10/28 00:34:20;;;;;;;138.03;132.30;;;16.30;99.90;;;;;;4969260;28;20471;-85
2022/10/28 00:36:48;;;;;;;130.77;125.87;;;16.40;99.90;;;;;;4969155;28;20894;-85
2022/10/28 00:39:16;;;;;;;131.47;126.07;;;16.30;99.90;;;;;;4969377;28;20456;-85
2022/10/28 00:41:45;;;;;;;133.00;127.60;;;16.20;99.90;;;;;;4982970;23;21020;-83
2022/10/28 00:44:51;;;;;;;125.83;120.77;;;16.20;99.90;;;;;;4954331;28;20459;-83
2022/10/28 00:47:27;;;;;;;138.77;132.90;;;16.20;99.90;;;;;;4955094;28;20459;-83
2022/10/28 00:49:57;;;;;;;152.83;146.90;;;16.30;99.90;;;;;;4954917;28;20454;-83
2022/10/28 00:52:28;;;;;;;166.70;159.93;;;16.20;99.90;;;;;;4954985;28;20981;-83
2022/10/28 00:54:56;;;;;;;180.47;173.40;;;16.30;99.90;;;;;;4954507;28;20995;-83
2022/10/28 00:57:28;;;;;;;193.83;186.63;;;16.20;99.90;;;;;;4954249;28;20462;-83
2022/10/28 00:59:58;;;;;;;215.03;207.33;;;16.20;99.90;;;;;;4955032;28;20520;-83
2022/10/28 01:02:25;;;;;;;220.40;212.20;;;16.10;99.90;;;;;;4954835;28;20482;-83
2022/10/28 01:04:52;;;;;;;246.33;237.50;;;16.10;99.90;;;;;;4954698;28;20464;-83
2022/10/28 01:07:19;;;;;;;245.93;236.23;;;16.10;99.90;;;;;;4954143;28;20459;-83
2022/10/28 01:09:46;;;;;;;240.70;231.90;;;16.10;99.90;;;;;;4954533;28;20459;-83
2022/10/28 01:12:21;;;;;;;241.13;231.60;;;16.10;99.90;;;;;;4955514;28;20486;-83
2022/10/28 01:15:02;;;;;;;230.60;222.10;;;16.10;99.90;;;;;;4954338;28;20462;-83
2022/10/28 01:17:49;;;;;;;204.23;196.73;;;16.10;99.90;;;;;;4954666;28;20462;-83
2022/10/28 01:20:43;;;;;;;185.97;178.67;;;16.20;99.90;;;;;;4954218;28;20480;-83
2022/10/28 01:23:16;;;;;;;193.63;186.27;;;16.20;99.90;;;;;;4957349;28;20459;-84
2022/10/28 01:26:14;;;;;;;200.37;192.97;;;16.20;99.90;;;;;;4954517;28;20470;-83
2022/10/28 01:29:07;;;;;;;213.27;205.57;;;16.10;99.90;;;;;;4955615;28;20943;-83
2022/10/28 01:31:42;;;;;;;235.17;226.67;;;16.10;99.90;;;;;;4944486;28;20473;-83
2022/10/28 01:34:19;;;;;;;250.10;240.17;;;16.00;99.90;;;;;;4954143;28;20460;-83
2022/10/28 01:36:56;;;;;;;244.73;234.23;;;16.00;99.90;;;;;;4954350;28;20462;-83
2022/10/28 01:39:30;;;;;;;251.90;242.50;;;16.10;99.90;;;;;;4954118;28;20468;-83
2022/10/28 01:42:08;;;;;;;250.70;241.10;;;16.10;99.90;;;;;;4953933;28;20494;-83
2022/10/28 01:44:43;;;;;;;248.70;239.13;;;15.80;99.90;;;;;;4953923;28;20865;-83
2022/10/28 01:47:16;;;;;;;276.33;265.23;;;15.90;99.90;;;;;;4954127;28;20459;-83
2022/10/28 01:49:48;;;;;;;298.47;286.37;;;15.70;99.90;;;;;;4958195;28;20458;-83
2022/10/28 01:52:21;;;;;;;306.57;294.47;;;15.70;99.90;;;;;;4954226;28;20484;-83
2022/10/28 01:54:50;;;;;;;300.43;288.27;;;15.70;99.90;;;;;;4955367;28;20457;-83
2022/10/28 01:57:18;;;;;;;322.63;309.53;;;15.70;99.90;;;;;;4953372;28;20465;-83
2022/10/28 01:59:48;;;;;;;295.43;283.20;;;15.70;99.90;;;;;;4954045;28;20465;-83
2022/10/28 02:02:17;;;;;;;263.43;252.73;;;15.80;99.90;;;;;;4953961;28;20520;-83
2022/10/28 02:04:44;;;;;;;231.10;222.10;;;15.90;99.90;;;;;;4953712;28;20463;-83
2022/10/28 02:07:11;;;;;;;214.30;205.57;;;15.90;99.90;;;;;;4953942;28;20491;-83
2022/10/28 02:09:52;;;;;;;221.37;212.17;;;15.80;99.90;;;;;;4953884;28;20457;-83
2022/10/28 02:12:26;;;;;;;218.23;209.73;;;15.80;99.90;;;;;;4954291;28;20454;-83
2022/10/28 02:15:25;;;;;;;229.63;220.50;;;15.70;99.90;;;;;;4953663;28;20461;-83
2022/10/28 02:18:11;;;;;;;224.63;215.27;;;15.70;99.90;;;;;;4953818;28;20470;-83
2022/10/28 02:20:45;;;;;;;247.63;238.13;;;15.60;99.90;;;;;;4956545;28;20476;-83
2022/10/28 02:23:21;;;;;;;273.10;261.70;;;15.50;99.90;;;;;;4957372;28;20952;-83
2022/10/28 02:25:55;;;;;;;292.50;280.87;;;15.40;99.90;;;;;;4957524;28;20947;-83
2022/10/28 02:28:28;;;;;;;329.70;316.20;;;15.20;99.90;;;;;;4957580;28;20485;-83
2022/10/28 02:31:01;;;;;;;370.00;354.90;;;15.20;99.90;;;;;;4957490;28;20852;-83
2022/10/28 02:33:34;;;;;;;383.27;367.00;;;15.10;99.90;;;;;;4957125;28;20985;-83
2022/10/28 02:36:04;;;;;;;381.43;364.63;;;15.10;99.90;;;;;;4958087;28;20464;-83
2022/10/28 02:38:35;;;;;;;385.73;368.47;;;15.00;99.90;;;;;;4957479;28;20464;-83
2022/10/28 02:41:06;;;;;;;402.90;385.43;;;15.00;99.90;;;;;;4957048;28;20489;-83
2022/10/28 02:43:36;;;;;;;462.27;440.10;;;14.80;99.90;;;;;;4957341;28;20464;-83
2022/10/28 02:46:04;;;;;;;448.97;428.43;;;14.90;99.90;;;;;;4957352;28;20489;-83
2022/10/28 02:48:36;;;;;;;454.87;433.50;;;14.90;99.90;;;;;;4957277;28;20848;-83
2022/10/28 02:51:09;;;;;;;450.77;429.50;;;14.90;99.90;;;;;;4957103;28;20853;-83
2022/10/28 02:53:45;;;;;;;449.90;428.73;;;15.00;99.90;;;;;;4956876;28;20460;-83
2022/10/28 02:56:14;;;;;;;440.87;420.80;;;15.00;99.90;;;;;;4956799;28;20547;-83
2022/10/28 02:58:41;;;;;;;455.50;434.07;;;15.00;99.90;;;;;;4956966;28;20977;-83
2022/10/28 03:01:08;;;;;;;460.77;439.63;;;14.90;99.90;;;;;;4956958;28;20485;-83
2022/10/28 03:03:36;;;;;;;487.93;463.63;;;14.90;99.90;;;;;;4956728;28;20512;-83
2022/10/28 03:06:03;;;;;;;518.90;493.43;;;14.90;99.90;;;;;;4956855;28;20876;-83
2022/10/28 03:08:29;;;;;;;521.83;494.90;;;14.80;99.90;;;;;;4956945;28;20778;-83
2022/10/28 03:10:56;;;;;;;541.43;514.63;;;14.90;99.90;;;;;;4956832;28;20477;-83
2022/10/28 03:13:23;;;;;;;545.37;518.07;;;14.80;99.90;;;;;;4956525;28;20460;-83
2022/10/28 03:15:49;;;;;;;551.97;524.17;;;14.80;99.90;;;;;;4957641;28;20464;-83
2022/10/28 03:18:16;;;;;;;578.60;548.77;;;14.70;99.90;;;;;;4956787;28;20860;-83
2022/10/28 03:20:44;;;;;;;603.27;571.97;;;14.70;99.90;;;;;;4956436;28;20480;-83
2022/10/28 03:23:11;;;;;;;586.93;555.33;;;14.70;99.90;;;;;;4956130;28;21004;-83
2022/10/28 03:25:38;;;;;;;602.97;569.87;;;14.60;99.90;;;;;;4956763;28;20467;-83
2022/10/28 03:28:05;;;;;;;590.57;559.40;;;14.70;99.90;;;;;;4956751;28;20463;-83
2022/10/28 03:30:31;;;;;;;600.43;568.40;;;14.60;99.90;;;;;;4956135;28;20484;-83
2022/10/28 03:32:58;;;;;;;600.10;568.10;;;14.70;99.90;;;;;;4956425;28;20456;-83
2022/10/28 03:35:25;;;;;;;593.67;561.77;;;14.70;99.90;;;;;;4956040;28;20470;-83
2022/10/28 03:37:53;;;;;;;598.63;567.57;;;14.70;99.90;;;;;;4956582;28;20455;-83
2022/10/28 03:40:19;;;;;;;590.30;559.50;;;14.70;99.90;;;;;;4957789;28;20989;-83
2022/10/28 03:42:46;;;;;;;592.97;561.47;;;14.70;99.90;;;;;;4956412;28;20909;-83
2022/10/28 03:45:13;;;;;;;593.37;562.17;;;14.70;99.90;;;;;;4956313;28;20829;-83
2022/10/28 03:47:40;;;;;;;585.33;553.57;;;14.80;99.90;;;;;;4956270;28;20667;-83
2022/10/28 03:50:07;;;;;;;562.63;532.20;;;14.70;99.90;;;;;;4955965;28;20479;-83
2022/10/28 03:52:34;;;;;;;549.63;520.73;;;14.80;99.90;;;;;;4956294;28;20479;-83
2022/10/28 03:55:02;;;;;;;489.63;465.93;;;14.80;99.90;;;;;;4955984;28;20476;-83
2022/10/28 03:57:31;;;;;;;410.80;391.90;;;15.00;99.90;;;;;;4955688;28;20467;-83
2022/10/28 03:59:57;;;;;;;347.33;332.00;;;15.10;99.90;;;;;;4956004;28;20487;-83
2022/10/28 04:02:25;;;;;;;302.53;288.93;;;15.20;99.90;;;;;;4956041;28;20488;-83
2022/10/28 04:04:52;;;;;;;282.97;270.67;;;15.30;99.90;;;;;;4955856;28;20464;-83
2022/10/28 04:07:18;;;;;;;277.40;265.70;;;15.20;99.90;;;;;;4956069;28;20461;-83
2022/10/28 04:09:48;;;;;;;289.77;277.20;;;15.10;99.90;;;;;;4955794;28;20815;-83
2022/10/28 04:12:16;;;;;;;286.70;274.40;;;15.00;99.90;;;;;;4962819;28;20481;-84
2022/10/28 04:14:54;;;;;;;310.53;296.77;;;14.90;99.90;;;;;;4965030;28;20458;-85
2022/10/28 04:17:20;;;;;;;338.87;324.57;;;14.90;99.90;;;;;;4965110;28;20462;-84
2022/10/28 04:26:22;;;;;;;384.50;366.57;;;14.90;99.90;;;;;;4962729;28;20457;-85
2022/10/28 04:29:18;;;;;;;381.23;364.40;;;14.90;99.90;;;;;;4959446;28;20463;-84
2022/10/28 04:31:50;;;;;;;380.67;363.67;;;14.80;99.90;;;;;;4963857;28;20532;-85
2022/10/28 04:34:29;;;;;;;390.10;372.60;;;14.90;99.90;;;;;;4963977;28;20472;-85
2022/10/28 04:37:21;;;;;;;395.10;377.70;;;14.80;99.90;;;;;;4963893;28;20459;-84
2022/10/28 04:40:17;;;;;;;390.70;373.37;;;14.80;99.90;;;;;;4963264;28;20456;-85
2022/10/28 04:42:56;;;;;;;394.60;377.00;;;14.70;99.90;;;;;;4962711;28;20467;-85
2022/10/28 04:45:40;;;;;;;397.03;379.30;;;14.70;99.90;;;;;;4963433;28;20459;-84
2022/10/28 04:48:21;;;;;;;402.83;384.40;;;14.70;99.90;;;;;;4964602;28;20467;-84
2022/10/28 04:50:53;;;;;;;415.03;395.67;;;14.70;99.90;;;;;;4963841;28;20472;-84
2022/10/28 04:53:28;;;;;;;426.20;405.47;;;14.70;99.90;;;;;;4964177;28;20452;-84
2022/10/28 04:56:29;;;;;;;416.70;397.73;;;14.70;99.90;;;;;;4963344;28;20460;-85
2022/10/28 04:59:38;;;;;;;433.20;413.43;;;14.60;99.90;;;;;;4963413;28;20499;-84
2022/10/28 05:02:23;;;;;;;454.17;431.87;;;14.60;99.90;;;;;;4963329;28;20995;-84
2022/10/28 05:05:03;;;;;;;436.67;415.67;;;14.70;99.90;;;;;;4963565;28;20474;-84
2022/10/28 05:13:36;;;;;;;270.57;257.60;;;14.90;99.90;;;;;;4933775;28;20927;-85
2022/10/28 05:16:32;;;;;;;233.17;221.90;;;15.00;99.90;;;;;;4963575;28;20448;-85
2022/10/28 05:19:31;;;;;;;235.93;224.73;;;15.10;99.90;;;;;;4963627;28;20467;-85
2022/10/28 05:25:06;;;;;;;205.83;196.23;;;15.30;99.90;;;;;;4963875;28;20952;-84
2022/10/28 05:27:40;;;;;;;203.20;194.13;;;15.20;99.90;;;;;;4963410;28;20456;-85
2022/10/28 05:30:16;;;;;;;214.30;204.60;;;15.10;99.90;;;;;;4963453;28;20464;-85
2022/10/28 05:33:19;;;;;;;229.30;219.50;;;15.00;99.90;;;;;;4963720;28;20475;-85
2022/10/28 05:35:56;;;;;;;258.87;247.00;;;14.80;99.90;;;;;;4949930;28;20871;-84
2022/10/28 05:38:29;;;;;;;299.73;286.73;;;14.70;99.90;;;;;;4963167;28;20444;-84
2022/10/28 05:41:10;;;;;;;314.17;300.20;;;14.70;99.90;;;;;;4962440;28;20484;-85
2022/10/28 05:43:40;;;;;;;341.50;325.57;;;14.70;99.90;;;;;;4963501;28;20479;-84
2022/10/28 05:46:07;;;;;;;359.70;343.80;;;14.70;99.90;;;;;;4962840;28;20464;-85
2022/10/28 05:48:38;;;;;;;391.73;373.07;;;14.70;99.90;;;;;;4963405;28;20465;-85
2022/10/28 05:51:06;;;;;;;397.30;378.93;;;14.70;99.90;;;;;;4963828;28;20507;-84
2022/10/28 05:53:33;;;;;;;401.73;383.43;;;14.80;99.90;;;;;;4963590;28;20462;-85
2022/10/28 05:56:00;;;;;;;405.57;386.33;;;14.60;99.90;;;;;;4963958;28;20462;-85
2022/10/28 05:58:39;;;;;;;400.10;381.50;;;14.70;99.90;;;;;;4961851;28;20460;-85
2022/10/28 06:01:26;;;;;;;401.47;382.60;;;14.70;99.90;;;;;;4961459;28;20983;-84
2022/10/28 06:03:57;;;;;;;401.07;382.57;;;14.80;99.90;;;;;;4961234;28;20491;-85
2022/10/28 06:06:33;;;;;;;394.53;376.63;;;14.80;99.90;;;;;;4961417;28;20850;-84
2022/10/28 06:09:05;;;;;;;373.77;356.30;;;14.70;99.90;;;;;;4960841;28;20589;-84
2022/10/28 06:11:32;;;;;;;348.90;332.10;;;14.90;99.90;;;;;;4961995;28;20490;-85
2022/10/28 06:14:09;;;;;;;337.47;322.30;;;14.90;99.90;;;;;;4961856;28;20455;-84
2022/10/28 06:16:37;;;;;;;335.17;319.27;;;14.90;99.90;;;;;;4961674;28;20471;-83
2022/10/28 06:19:04;;;;;;;325.30;310.90;;;15.00;99.90;;;;;;4962340;28;20495;-84
2022/10/28 06:21:32;;;;;;;305.63;291.67;;;15.00;99.90;;;;;;4957423;28;20474;-82
2022/10/28 06:23:59;;;;;;;281.87;269.50;;;15.00;99.90;;;;;;4953257;28;20480;-82
2022/10/28 06:26:25;;;;;;;269.70;257.67;;;15.10;99.90;;;;;;4952853;28;20485;-83
2022/10/28 06:28:52;;;;;;;261.67;250.67;;;15.00;99.90;;;;;;4953804;28;20487;-82
2022/10/28 06:31:19;;;;;;;258.50;247.00;;;15.20;99.90;;;;;;4953847;28;20477;-83
2022/10/28 06:33:45;;;;;;;274.97;262.80;;;15.10;99.90;;;;;;4953509;28;20461;-82
2022/10/28 06:36:12;;;;;;;278.83;266.27;;;14.90;99.90;;;;;;4953733;28;20467;-82
2022/10/28 06:38:40;;;;;;;298.93;286.13;;;15.00;99.90;;;;;;4953594;28;20471;-83
2022/10/28 06:41:07;;;;;;;288.47;275.63;;;15.00;99.90;;;;;;5033529;23;20492;-83
2022/10/28 06:43:34;;;;;;;287.20;275.20;;;15.00;99.90;;;;;;5009964;28;20494;-83
2022/10/28 06:46:04;;;;;;;285.80;272.80;;;15.00;99.90;;;;;;5005665;28;20455;-83
2022/10/28 06:48:31;;;;;;;275.27;263.63;;;15.10;99.90;;;;;;5005471;28;20459;-83
2022/10/28 06:51:01;;;;;;;254.10;242.47;;;15.20;99.90;;;;;;5004859;28;20477;-84
2022/10/28 06:53:27;;;;;;;228.40;218.07;;;15.20;99.90;;;;;;5004121;28;20449;-83
2022/10/28 06:55:57;;;;;;;202.27;193.50;;;15.20;99.90;;;;;;5002748;28;20467;-83
2022/10/28 06:58:25;;;;;;;185.97;178.33;;;15.40;99.90;;;;;;5003234;28;20459;-82
2022/10/28 07:00:52;;;;;;;176.33;168.97;;;15.40;99.90;;;;;;5005729;28;20478;-83
2022/10/28 07:03:19;;;;;;;155.40;148.73;;;15.30;99.90;;;;;;5005006;28;20470;-83
2022/10/28 07:05:48;;;;;;;141.63;135.93;;;15.40;99.90;;;;;;5006850;28;20448;-83
2022/10/28 07:08:15;;;;;;;126.43;121.23;;;15.50;99.90;;;;;;5009310;28;20460;-85
2022/10/28 07:10:42;;;;;;;110.30;105.00;;;15.40;99.90;;;;;;5008073;28;20478;-85
2022/10/28 07:13:10;;;;;;;109.13;104.60;;;15.50;99.90;;;;;;5008160;28;20456;-85
2022/10/28 07:15:37;;;;;;;110.90;106.60;;;15.70;99.90;;;;;;5008309;28;20451;-86
2022/10/28 09:14:07;;;;;;;13.57;5.63;;;18.30;99.90;;;;;;5095651;27;1237268;-83
2022/10/28 09:16:41;;;;;;;16.47;6.33;;;19.30;99.90;;;;;;5126056;28;20198;-82
2022/10/28 09:19:24;;;;;;;11.53;6.00;;;19.40;99.90;;;;;;5115200;28;20487;-83
2022/10/28 09:21:59;;;;;;;14.13;5.03;;;19.60;99.90;;;;;;5106611;28;20449;-83
2022/10/28 09:24:38;;;;;;;21.80;6.47;;;19.80;99.70;;;;;;5106242;28;20462;-83
2022/10/28 09:27:14;;;;;;;17.40;5.63;;;20.10;99.80;;;;;;5106574;28;20457;-83
2022/10/28 09:29:53;;;;;;;14.17;4.97;;;20.40;99.00;;;;;;5105931;28;20459;-83
2022/10/28 09:32:25;;;;;;;16.30;5.43;;;20.90;97.60;;;;;;5105793;28;20493;-83
2022/10/28 09:34:59;;;;;;;15.30;5.53;;;21.10;96.70;;;;;;5104309;28;20463;-84
2022/10/28 09:37:31;;;;;;;14.23;5.70;;;21.40;95.70;;;;;;5104759;28;20445;-83
2022/10/28 09:40:02;;;;;;;12.43;5.47;;;21.60;95.30;;;;;;5103935;28;20448;-84
2022/10/28 09:42:34;;;;;;;22.10;6.13;;;22.00;95.20;;;;;;5104212;28;20449;-83
2022/10/28 09:45:05;;;;;;;11.10;4.60;;;22.20;94.30;;;;;;5104813;28;20533;-83
2022/10/28 09:47:37;;;;;;;13.37;6.47;;;22.50;92.80;;;;;;5105020;28;20450;-83
2022/10/28 09:50:12;;;;;;;15.27;5.10;;;22.70;92.50;;;;;;5105235;28;20526;-83
2022/10/28 10:21:40;;;;;;;14.87;6.47;;;22.10;92.80;;;;;;5875403;23;20479;-83
2022/10/28 10:24:22;;;;;;;16.80;5.43;;;22.60;92.60;;;;;;4992625;28;20487;-82
2022/10/28 10:26:50;;;;;;;15.37;5.20;;;23.00;91.30;;;;;;4992551;28;20459;-82
2022/10/28 10:29:17;;;;;;;12.00;4.50;;;23.10;91.00;;;;;;4993055;28;20451;-82
2022/10/28 10:31:44;;;;;;;13.60;5.43;;;23.40;90.60;;;;;;4989311;28;20491;-82
2022/10/28 10:34:23;;;;;;;14.00;5.87;;;23.50;91.20;;;;;;4992995;28;20458;-80
2022/10/28 10:36:55;;;;;;;17.93;6.30;;;23.70;90.50;;;;;;4992317;28;20460;-82
2022/10/28 10:39:26;;;;;;;16.73;5.27;;;23.60;90.50;;;;;;4989723;28;20462;-82
2022/10/28 10:41:54;;;;;;;14.10;5.80;;;23.70;90.70;;;;;;4986344;28;20487;-83
2022/10/28 10:44:33;;;;;;;21.20;5.37;;;23.70;90.00;;;;;;4985594;28;20454;-82
2022/10/28 10:47:22;;;;;;;15.37;5.80;;;23.50;91.10;;;;;;4986077;28;20955;-85
2022/10/28 10:49:50;;;;;;;11.80;5.73;;;23.30;91.70;;;;;;4987010;28;20994;-85
2022/10/28 10:52:21;;;;;;;14.90;5.80;;;23.60;91.00;;;;;;4985808;28;20481;-85
2022/10/28 10:55:02;;;;;;;18.47;5.67;;;24.50;90.10;;;;;;4984347;28;20482;-85
2022/10/28 10:57:30;;;;;;;18.50;5.30;;;25.30;89.30;;;;;;4984729;28;20485;-86
2022/10/28 10:59:57;;;;;;;16.03;5.83;;;25.80;84.90;;;;;;4983742;28;20461;-85
2022/10/28 11:02:27;;;;;;;18.17;5.10;;;26.10;83.50;;;;;;4983373;28;21022;-85
2022/10/28 11:04:58;;;;;;;13.20;5.30;;;26.30;79.60;;;;;;4987119;28;20458;-85
2022/10/28 11:07:27;;;;;;;11.70;4.70;;;26.20;80.00;;;;;;4985393;28;20527;-85
2022/10/28 11:09:55;;;;;;;14.40;4.90;;;26.10;79.00;;;;;;4983641;28;20482;-86
2022/10/28 11:12:27;;;;;;;10.13;4.43;;;26.40;78.50;;;;;;4982310;28;20569;-85
2022/10/28 11:14:57;;;;;;;17.40;5.60;;;26.60;75.80;;;;;;4982837;28;20457;-85
2022/10/28 11:17:26;;;;;;;16.70;5.23;;;26.90;74.80;;;;;;4982036;28;20459;-86
2022/10/28 11:19:56;;;;;;;19.43;4.33;;;27.40;73.20;;;;;;4982225;28;20849;-85
2022/10/28 11:22:35;;;;;;;14.50;4.20;;;27.50;72.60;;;;;;4981740;28;20475;-86
2022/10/28 11:25:33;;;;;;;17.47;5.30;;;27.70;70.70;;;;;;4980209;28;20470;-86
2022/10/28 11:28:17;;;;;;;17.20;5.10;;;27.60;68.90;;;;;;4982002;28;20463;-86
2022/10/28 11:30:52;;;;;;;16.97;4.83;;;27.80;68.30;;;;;;4981067;28;20455;-86
2022/10/28 11:33:23;;;;;;;10.70;4.37;;;27.60;68.50;;;;;;4980904;28;21018;-85
2022/10/28 11:35:58;;;;;;;11.53;5.37;;;27.20;68.40;;;;;;4982499;28;20455;-86
2022/10/28 11:38:43;;;;;;;14.33;4.53;;;27.00;70.40;;;;;;4981573;28;20458;-85
2022/10/28 11:41:23;;;;;;;14.00;4.53;;;26.70;73.80;;;;;;4981283;28;20478;-86
2022/10/28 11:43:53;;;;;;;14.00;4.70;;;26.90;72.70;;;;;;4980302;28;20478;-86
2022/10/28 11:46:38;;;;;;;13.83;4.47;;;27.50;70.60;;;;;;4981290;28;20641;-86
2022/10/28 11:49:34;;;;;;;15.17;4.60;;;27.70;68.20;;;;;;4981643;28;20466;-86
2022/10/28 11:52:14;;;;;;;21.87;4.53;;;28.20;69.00;;;;;;4981900;28;20478;-86
2022/10/28 11:54:54;;;;;;;13.10;4.40;;;28.30;60.20;;;;;;4981695;28;20975;-86
2022/10/28 11:57:30;;;;;;;16.00;3.50;;;28.70;57.20;;;;;;4981465;28;20465;-86
2022/10/28 12:00:14;;;;;;;10.77;3.90;;;28.90;57.10;;;;;;4982219;28;20442;-86
2022/10/28 12:02:58;;;;;;;11.67;3.90;;;29.20;55.70;;;;;;4980396;28;20490;-86
2022/10/28 12:05:32;;;;;;;15.60;4.00;;;29.20;52.00;;;;;;4981056;28;20455;-85
2022/10/28 12:08:25;;;;;;;12.73;4.20;;;28.90;51.60;;;;;;4981963;28;20460;-85
2022/10/28 12:11:03;;;;;;;17.37;4.37;;;28.30;50.20;;;;;;4980854;28;20497;-85
2022/10/28 12:13:40;;;;;;;12.77;4.23;;;28.30;48.80;;;;;;4981913;28;20458;-85
2022/10/28 12:16:14;;;;;;;19.53;4.83;;;28.10;48.70;;;;;;4982219;28;20451;-85
2022/10/28 12:18:49;;;;;;;14.27;5.40;;;27.70;49.00;;;;;;4981161;28;20458;-86
2022/10/28 12:21:25;;;;;;;17.80;3.80;;;27.60;50.90;;;;;;4981049;28;20478;-85
2022/10/28 12:23:54;;;;;;;14.27;3.80;;;27.60;47.40;;;;;;4980852;28;20486;-85
2022/10/28 12:26:34;;;;;;;18.30;5.57;;;27.30;47.90;;;;;;4979194;28;20450;-86
2022/10/28 12:29:05;;;;;;;30.60;5.23;;;26.90;50.40;;;;;;4979142;28;20505;-85
2022/10/28 12:31:39;;;;;;;12.90;3.97;;;26.90;49.50;;;;;;4978620;28;20479;-84
2022/10/28 12:34:12;;;;;;;11.83;3.33;;;26.60;54.40;;;;;;4979864;28;20461;-85
2022/10/28 12:36:45;;;;;;;15.90;4.30;;;26.40;53.90;;;;;;4979163;28;20455;-85
2022/10/28 12:39:17;;;;;;;21.07;5.43;;;26.50;57.20;;;;;;4979071;28;20459;-85
2022/10/28 12:41:54;;;;;;;14.40;5.67;;;26.60;57.80;;;;;;4979377;28;20478;-85
2022/10/28 12:44:23;;;;;;;14.90;4.03;;;26.60;58.40;;;;;;4979367;28;20438;-85
2022/10/28 12:47:03;;;;;;;14.70;4.30;;;26.40;57.70;;;;;;4979468;28;20963;-85
2022/10/28 12:49:39;;;;;;;12.30;3.93;;;26.30;58.80;;;;;;4979683;28;20458;-86
2022/10/28 12:52:17;;;;;;;14.77;4.77;;;26.10;58.00;;;;;;4979194;28;20454;-85
2022/10/28 12:54:54;;;;;;;22.07;5.00;;;26.10;57.40;;;;;;4982645;28;20446;-87
2022/10/28 12:57:24;;;;;;;16.93;5.37;;;26.30;62.50;;;;;;4984234;28;20438;-85
2022/10/28 12:59:54;;;;;;;14.50;4.27;;;26.40;63.10;;;;;;4984180;28;20447;-86
2022/10/28 13:02:26;;;;;;;11.00;4.90;;;26.50;62.20;;;;;;4983115;28;20478;-85
2022/10/28 13:04:53;;;;;;;16.90;4.70;;;26.60;62.50;;;;;;4984292;28;20443;-86
2022/10/28 13:07:43;;;;;;;14.97;3.37;;;26.60;59.00;;;;;;4983642;28;20447;-86
2022/10/28 13:10:24;;;;;;;12.40;5.10;;;26.60;57.80;;;;;;4981309;28;20458;-85
2022/10/28 13:13:38;;;;;;;9.70;3.47;;;26.50;58.70;;;;;;4979441;28;20470;-86
2022/10/28 13:16:35;;;;;;;15.50;3.40;;;26.30;58.80;;;;;;4940560;28;20458;-86
2022/10/28 13:19:37;;;;;;;13.07;3.70;;;26.20;58.70;;;;;;4974575;28;20531;-86
2022/10/28 13:22:29;;;;;;;16.87;5.67;;;26.20;56.50;;;;;;4975651;28;20478;-87
2022/10/28 13:25:02;;;;;;;11.23;4.33;;;26.20;55.60;;;;;;4974350;28;20858;-86
2022/10/28 13:27:29;;;;;;;13.93;4.90;;;26.20;49.90;;;;;;4975814;28;20463;-86
2022/10/28 13:29:58;;;;;;;12.63;3.60;;;26.10;51.60;;;;;;4977697;28;20454;-87
2022/10/28 13:32:33;;;;;;;16.20;4.87;;;26.10;51.70;;;;;;4974891;28;20481;-89
2022/10/28 13:35:09;;;;;;;9.30;3.50;;;26.10;51.80;;;;;;4975561;28;20462;-87
2022/10/28 13:37:39;;;;;;;19.37;3.40;;;26.10;49.80;;;;;;4981562;28;20458;-86
2022/10/28 13:40:07;;;;;;;18.60;4.30;;;26.20;52.70;;;;;;4982985;28;20459;-86
2022/10/28 13:42:46;;;;;;;10.63;3.83;;;26.10;49.80;;;;;;4982362;28;20702;-86
2022/10/28 13:45:58;;;;;;;12.87;4.70;;;26.00;49.70;;;;;;4981017;28;20466;-86
2022/10/28 13:48:48;;;;;;;10.23;3.47;;;25.90;50.50;;;;;;4922642;29;20464;-86
2022/10/28 13:51:33;;;;;;;19.03;4.07;;;25.60;52.60;;;;;;4976052;28;20530;-86
2022/10/28 13:54:00;;;;;;;13.57;3.67;;;25.30;58.10;;;;;;4985139;28;20454;-85
2022/10/28 13:56:46;;;;;;;13.17;4.10;;;25.10;57.10;;;;;;4984565;28;21062;-86
2022/10/28 13:59:24;;;;;;;12.13;3.97;;;24.90;58.10;;;;;;4986031;28;20482;-86
2022/10/28 14:02:16;;;;;;;10.30;3.70;;;24.80;54.20;;;;;;4984965;28;20500;-86
2022/10/28 14:04:54;;;;;;;12.20;4.50;;;24.70;52.30;;;;;;4984896;28;20455;-86
2022/10/28 14:07:26;;;;;;;10.03;3.47;;;24.50;55.20;;;;;;4984857;28;20443;-85
2022/10/28 14:09:57;;;;;;;12.57;3.70;;;24.50;53.80;;;;;;4984978;28;20779;-86
2022/10/28 14:12:32;;;;;;;17.73;3.80;;;24.20;52.80;;;;;;4984429;28;20482;-86
2022/10/28 14:15:03;;;;;;;10.27;3.53;;;24.00;53.20;;;;;;4983034;28;20463;-85
2022/10/28 14:17:36;;;;;;;9.57;4.23;;;24.00;53.10;;;;;;4987821;28;20455;-85
2022/10/28 14:20:08;;;;;;;13.60;4.37;;;23.80;55.30;;;;;;4985060;28;20454;-85
2022/10/28 14:22:36;;;;;;;12.83;4.40;;;23.70;55.20;;;;;;4984897;28;20481;-87
2022/10/28 14:25:53;;;;;;;11.97;4.60;;;23.70;56.30;;;;;;4981855;28;20472;-86
2022/10/28 14:28:51;;;;;;;17.60;4.00;;;23.60;55.20;;;;;;4923985;29;20463;-85
2022/10/28 14:31:32;;;;;;;20.63;4.93;;;23.60;56.30;;;;;;4981776;28;20481;-85
2022/10/28 14:34:35;;;;;;;14.80;4.50;;;23.50;56.30;;;;;;4984276;28;20466;-86
2022/10/28 14:37:17;;;;;;;16.93;4.63;;;23.60;56.60;;;;;;4983476;28;20453;-85
2022/10/28 14:39:59;;;;;;;17.50;5.87;;;23.50;56.50;;;;;;4983509;28;20465;-85
2022/10/28 14:42:59;;;;;;;13.57;6.00;;;23.40;56.40;;;;;;4983439;28;20472;-85
2022/10/28 14:45:34;;;;;;;10.23;3.53;;;23.30;56.50;;;;;;4982847;28;20460;-86
2022/10/28 14:48:25;;;;;;;19.53;4.50;;;23.30;58.50;;;;;;4983673;28;20453;-85
2022/10/28 14:50:54;;;;;;;14.50;3.77;;;23.10;58.40;;;;;;4983091;28;20489;-86
2022/10/28 14:53:27;;;;;;;14.83;4.47;;;23.10;60.20;;;;;;4983409;28;20457;-86
2022/10/28 14:56:00;;;;;;;11.27;3.53;;;23.00;60.70;;;;;;4982957;28;20955;-85
2022/10/28 14:58:30;;;;;;;10.97;4.57;;;22.90;61.50;;;;;;4983233;28;20469;-85
2022/10/28 15:01:22;;;;;;;11.50;5.57;;;22.90;62.30;;;;;;4983186;28;20477;-86
2022/10/28 15:03:52;;;;;;;13.97;4.10;;;22.70;62.10;;;;;;4982769;28;20492;-86
2022/10/28 15:06:25;;;;;;;15.67;3.97;;;22.80;64.40;;;;;;4982917;28;20457;-86
2022/10/28 15:08:54;;;;;;;12.57;3.90;;;22.50;64.70;;;;;;4983216;28;20462;-85
2022/10/28 15:11:22;;;;;;;13.50;4.60;;;22.40;64.70;;;;;;4982906;28;20885;-86
2022/10/28 15:13:51;;;;;;;16.10;3.93;;;22.40;63.20;;;;;;4983192;28;20461;-86
2022/10/28 15:16:23;;;;;;;19.17;3.90;;;22.30;63.90;;;;;;4983514;28;20462;-86
2022/10/28 15:18:51;;;;;;;12.27;5.60;;;22.20;63.80;;;;;;4983959;28;20485;-85
2022/10/28 15:21:20;;;;;;;15.40;3.73;;;22.10;63.80;;;;;;4983226;28;20477;-85
2022/10/28 15:24:00;;;;;;;10.87;4.37;;;22.00;65.50;;;;;;4983791;28;21026;-86
2022/10/28 15:26:27;;;;;;;11.80;4.30;;;21.80;64.30;;;;;;4985140;28;20460;-86
2022/10/28 15:28:55;;;;;;;13.20;3.87;;;21.90;64.20;;;;;;4999551;28;20458;-85
2022/10/28 15:31:22;;;;;;;11.50;4.50;;;21.80;64.30;;;;;;4999046;28;20449;-85
2022/10/28 15:33:48;;;;;;;16.23;4.77;;;21.80;66.10;;;;;;4999165;28;20441;-86
2022/10/28 15:36:17;;;;;;;20.50;5.23;;;21.70;66.00;;;;;;4998354;28;20446;-85